Gorham, NH (03581)

3:19 PM EDT on August 01, 2015 (GMT -0400)
Norwegian village | | Change Station
CLOSE
Current Station
Personal Weather Station
Location: Berlin, NH
Elevation: 1099 ft
Nearby Weather Stations

Elev 1099 ft 44.48 °N, 71.17 °W | Updated 8 seconds ago

Overcast
Overcast
80.1 °F
Feels Like 81 °F
N
0.0
Wind Variable Wind from ESE
Gusts 1.6 mph

Today
High -- | Low -- °F
--% Chance of Precip.
Yesterday
High -- | Low -- °F
Precip. -- in
5:31 AM 8:10 PM
Full, 97% visible
Pressure 29.75 in
Visibility 10.0 miles
Clouds Few 9500 ft
Heat Index 81 °F
Dew Point 62 °F
Humidity 54%
Rainfall 0.00 in
Snow Depth Not available.
UV 8 out of 12
Pollen 4.90 out of 12
Air Quality Not available.
Flu Activity Not available.
METAR KHIE 011852Z AUTO 24007KT 200V270 10SM FEW095 23/14 A2975 RMK AO2 SLP074 T02280139 TSNO

More Conditions Fewer Conditions

Pressure 29.75 in
Visibility 10.0 miles
Clouds Few 9500 ft
Heat Index 81 °F
Dew Point 62 °F
Humidity 54%
Rainfall 0.00 in
Snow Depth Not available.
UV 8 out of 12
Pollen 4.90 out of 12
Air Quality Not available.
Flu Activity Not available.
METAR KHIE 011852Z AUTO 24007KT 200V270 10SM FEW095 23/14 A2975 RMK AO2 SLP074 T02280139 TSNO

More Conditions Fewer Conditions

10-Day Weather Forecast

×

Almanac

Astronomy

Aug. 01, 2015 Rise Set
Actual Time
Civil Twilight
Nautical Twilight
Astronomical Twilight
Moon
Length of Visible Light
Length of Day
Tomorrow will be .
, % of the Moon is Illuminated

Today's Extremes

State Highs State Lows

Community

WunderPhotos

Upload Photos

1,843,039 photos uploaded!

WunderBlogs® & News

Nearby

Air Quality

  Air Quality AQ Index Pollutant
Not available.

Snow Depth

Station Depth Elevation

Earthquake Activity

City Distance Mag. Time & Date
Minimum magnitude displayed is 2.5.

Coastal Water Temperatures

Place Temperature

Stations

Nearby Weather Stations

Station Location Temp. Windchill Dew Point Humidity Wind Precip. Elev Updated Type